sensor_id;sensor_type;location;lat;lon;timestamp;pressure;altitude;pressure_sealevel;temperature;humidity
19783;BME280;10051;40.294;-3.754;2024-02-28T00:01:37;94437.31;;;7.01;39.90
19783;BME280;10051;40.294;-3.754;2024-02-28T00:04:03;94483.69;;;7.43;39.85
19783;BME280;10051;40.294;-3.754;2024-02-28T00:06:28;94475.22;;;7.69;40.72
19783;BME280;10051;40.294;-3.754;2024-02-28T00:08:54;94530.16;;;8.01;40.52
19783;BME280;10051;40.294;-3.754;2024-02-28T00:11:20;94509.66;;;7.93;41.53
19783;BME280;10051;40.294;-3.754;2024-02-28T00:13:46;94534.16;;;7.77;41.92
19783;BME280;10051;40.294;-3.754;2024-02-28T00:16:12;94446.47;;;7.36;41.49
19783;BME280;10051;40.294;-3.754;2024-02-28T00:18:37;94507.41;;;7.32;42.88
19783;BME280;10051;40.294;-3.754;2024-02-28T00:21:03;94473.97;;;7.06;42.62
19783;BME280;10051;40.294;-3.754;2024-02-28T00:23:29;94533.69;;;7.47;42.65
19783;BME280;10051;40.294;-3.754;2024-02-28T00:25:55;94527.34;;;7.38;43.54
19783;BME280;10051;40.294;-3.754;2024-02-28T00:28:21;94434.22;;;6.77;43.35
19783;BME280;10051;40.294;-3.754;2024-02-28T00:30:46;94534.16;;;7.39;43.77
19783;BME280;10051;40.294;-3.754;2024-02-28T00:33:12;94520.31;;;7.43;43.68
19783;BME280;10051;40.294;-3.754;2024-02-28T00:35:39;94527.22;;;7.55;43.42
19783;BME280;10051;40.294;-3.754;2024-02-28T00:38:05;94517.19;;;7.47;43.47
19783;BME280;10051;40.294;-3.754;2024-02-28T00:40:30;94501.31;;;7.21;43.69
19783;BME280;10051;40.294;-3.754;2024-02-28T00:42:57;94499.69;;;6.87;44.40
19783;BME280;10051;40.294;-3.754;2024-02-28T00:45:23;94461.53;;;6.64;44.04
19783;BME280;10051;40.294;-3.754;2024-02-28T00:47:48;94514.91;;;7.23;44.62
19783;BME280;10051;40.294;-3.754;2024-02-28T00:50:14;94509.34;;;7.47;43.71
19783;BME280;10051;40.294;-3.754;2024-02-28T00:52:40;94496.56;;;7.18;43.93
19783;BME280;10051;40.294;-3.754;2024-02-28T00:55:06;94524.09;;;6.98;44.39
19783;BME280;10051;40.294;-3.754;2024-02-28T00:57:32;94527.22;;;6.73;44.71
19783;BME280;10051;40.294;-3.754;2024-02-28T00:59:58;94454.03;;;6.01;45.51
19783;BME280;10051;40.294;-3.754;2024-02-28T01:02:23;94479.72;;;6.53;45.66
19783;BME280;10051;40.294;-3.754;2024-02-28T01:04:49;94478.56;;;6.44;45.23
19783;BME280;10051;40.294;-3.754;2024-02-28T01:07:15;94395.84;;;5.83;47.07
19783;BME280;10051;40.294;-3.754;2024-02-28T01:09:40;94512.66;;;6.54;46.32
19783;BME280;10051;40.294;-3.754;2024-02-28T01:12:06;94498.97;;;6.47;46.01
19783;BME280;10051;40.294;-3.754;2024-02-28T01:14:31;94509.44;;;6.47;46.74
19783;BME280;10051;40.294;-3.754;2024-02-28T01:16:57;94503.28;;;6.14;46.61
19783;BME280;10051;40.294;-3.754;2024-02-28T01:19:23;94522.44;;;6.42;46.96
19783;BME280;10051;40.294;-3.754;2024-02-28T01:21:49;94495.28;;;6.21;46.53
19783;BME280;10051;40.294;-3.754;2024-02-28T01:24:14;94525.22;;;6.35;47.25
19783;BME280;10051;40.294;-3.754;2024-02-28T01:26:40;94508.59;;;6.19;47.17
19783;BME280;10051;40.294;-3.754;2024-02-28T01:29:06;94482.19;;;5.81;48.81
19783;BME280;10051;40.294;-3.754;2024-02-28T01:31:32;94501.97;;;5.94;48.45
19783;BME280;10051;40.294;-3.754;2024-02-28T01:33:58;94502.69;;;6.29;47.87
19783;BME280;10051;40.294;-3.754;2024-02-28T01:36:23;94517.94;;;6.60;47.26
19783;BME280;10051;40.294;-3.754;2024-02-28T01:38:49;94447.63;;;6.31;47.30
19783;BME280;10051;40.294;-3.754;2024-02-28T01:41:14;94458.28;;;6.51;47.91
19783;BME280;10051;40.294;-3.754;2024-02-28T01:43:40;94472.19;;;6.57;47.54
19783;BME280;10051;40.294;-3.754;2024-02-28T01:46:20;94448.03;;;6.00;47.69
19783;BME280;10051;40.294;-3.754;2024-02-28T01:48:46;94475.31;;;5.75;49.00
19783;BME280;10051;40.294;-3.754;2024-02-28T01:51:12;94499.41;;;6.17;48.87
19783;BME280;10051;40.294;-3.754;2024-02-28T01:53:38;94498.19;;;6.47;48.93
19783;BME280;10051;40.294;-3.754;2024-02-28T01:56:04;94438.44;;;6.06;48.85
19783;BME280;10051;40.294;-3.754;2024-02-28T01:58:30;94475.63;;;6.63;48.59
19783;BME280;10051;40.294;-3.754;2024-02-28T02:00:56;94493.03;;;6.52;48.09
19783;BME280;10051;40.294;-3.754;2024-02-28T02:03:21;94502.56;;;6.41;47.63
19783;BME280;10051;40.294;-3.754;2024-02-28T02:05:47;94484.56;;;6.00;48.43
19783;BME280;10051;40.294;-3.754;2024-02-28T02:08:13;94481.03;;;5.89;49.58
19783;BME280;10051;40.294;-3.754;2024-02-28T02:10:39;94471.06;;;5.86;49.50
19783;BME280;10051;40.294;-3.754;2024-02-28T02:13:06;94505.41;;;6.17;49.58
19783;BME280;10051;40.294;-3.754;2024-02-28T02:15:32;94493.66;;;6.15;49.59
19783;BME280;10051;40.294;-3.754;2024-02-28T02:17:57;94501.50;;;6.37;49.17
19783;BME280;10051;40.294;-3.754;2024-02-28T02:20:23;94472.75;;;6.15;49.56
19783;BME280;10051;40.294;-3.754;2024-02-28T02:22:51;94479.56;;;6.38;49.20
19783;BME280;10051;40.294;-3.754;2024-02-28T02:25:17;94491.69;;;6.27;49.06
19783;BME280;10051;40.294;-3.754;2024-02-28T02:27:42;94465.78;;;6.20;48.69
19783;BME280;10051;40.294;-3.754;2024-02-28T02:30:08;94448.81;;;6.01;49.51
19783;BME280;10051;40.294;-3.754;2024-02-28T02:32:34;94499.72;;;6.20;48.60
19783;BME280;10051;40.294;-3.754;2024-02-28T02:35:00;94472.03;;;6.19;47.51
19783;BME280;10051;40.294;-3.754;2024-02-28T02:37:25;94462.97;;;6.05;47.53
19783;BME280;10051;40.294;-3.754;2024-02-28T02:39:51;94424.69;;;5.71;47.76
19783;BME280;10051;40.294;-3.754;2024-02-28T02:42:17;94381.88;;;5.50;47.78
19783;BME280;10051;40.294;-3.754;2024-02-28T02:44:43;94453.31;;;5.66;48.32
19783;BME280;10051;40.294;-3.754;2024-02-28T02:47:08;94453.94;;;5.73;48.47
19783;BME280;10051;40.294;-3.754;2024-02-28T02:49:34;94464.84;;;5.70;49.05
19783;BME280;10051;40.294;-3.754;2024-02-28T02:52:00;94415.09;;;5.38;49.48
19783;BME280;10051;40.294;-3.754;2024-02-28T02:54:25;94387.72;;;5.40;48.58
19783;BME280;10051;40.294;-3.754;2024-02-28T02:56:51;94424.78;;;5.81;47.86
19783;BME280;10051;40.294;-3.754;2024-02-28T02:59:16;94424.00;;;5.81;48.19
19783;BME280;10051;40.294;-3.754;2024-02-28T03:01:42;94384.25;;;5.74;47.85
19783;BME280;10051;40.294;-3.754;2024-02-28T03:04:07;94447.56;;;6.03;47.90
19783;BME280;10051;40.294;-3.754;2024-02-28T03:06:33;94463.56;;;6.34;47.69
19783;BME280;10051;40.294;-3.754;2024-02-28T03:08:58;94461.63;;;6.02;49.17
19783;BME280;10051;40.294;-3.754;2024-02-28T03:11:24;94375.41;;;5.35;49.21
19783;BME280;10051;40.294;-3.754;2024-02-28T03:13:50;94346.88;;;5.46;48.89
19783;BME280;10051;40.294;-3.754;2024-02-28T03:16:15;94435.34;;;6.09;48.72
19783;BME280;10051;40.294;-3.754;2024-02-28T03:18:41;94452.34;;;6.12;48.85
19783;BME280;10051;40.294;-3.754;2024-02-28T03:21:06;94407.22;;;5.55;49.42
19783;BME280;10051;40.294;-3.754;2024-02-28T03:23:33;94481.22;;;6.05;49.42
19783;BME280;10051;40.294;-3.754;2024-02-28T03:25:58;94452.91;;;5.96;49.05
19783;BME280;10051;40.294;-3.754;2024-02-28T03:28:24;94408.34;;;5.81;48.05
19783;BME280;10051;40.294;-3.754;2024-02-28T03:30:49;94455.50;;;6.36;47.10
19783;BME280;10051;40.294;-3.754;2024-02-28T03:33:15;94447.00;;;6.23;45.43
19783;BME280;10051;40.294;-3.754;2024-02-28T03:35:40;94464.13;;;6.14;45.98
19783;BME280;10051;40.294;-3.754;2024-02-28T03:38:06;94468.94;;;6.22;46.00
19783;BME280;10051;40.294;-3.754;2024-02-28T03:40:32;94452.72;;;6.20;46.01
19783;BME280;10051;40.294;-3.754;2024-02-28T03:42:57;94456.84;;;6.16;46.88
19783;BME280;10051;40.294;-3.754;2024-02-28T03:45:28;94470.69;;;6.17;46.63
19783;BME280;10051;40.294;-3.754;2024-02-28T03:47:53;94461.31;;;5.81;46.56
19783;BME280;10051;40.294;-3.754;2024-02-28T03:50:19;94476.50;;;5.85;48.13
19783;BME280;10051;40.294;-3.754;2024-02-28T03:52:45;94464.03;;;5.70;48.53
19783;BME280;10051;40.294;-3.754;2024-02-28T03:55:10;94447.94;;;5.56;49.80
19783;BME280;10051;40.294;-3.754;2024-02-28T03:57:36;94457.31;;;5.74;49.47
19783;BME280;10051;40.294;-3.754;2024-02-28T04:00:02;94451.09;;;5.97;48.58
19783;BME280;10051;40.294;-3.754;2024-02-28T04:02:30;94370.00;;;5.42;48.95
19783;BME280;10051;40.294;-3.754;2024-02-28T04:04:55;94396.06;;;5.59;47.83
19783;BME280;10051;40.294;-3.754;2024-02-28T04:07:20;94448.53;;;6.19;46.36
19783;BME280;10051;40.294;-3.754;2024-02-28T04:09:46;94408.63;;;6.02;45.03
19783;BME280;10051;40.294;-3.754;2024-02-28T04:12:12;94372.44;;;5.88;44.81
19783;BME280;10051;40.294;-3.754;2024-02-28T04:14:38;94436.28;;;6.47;44.81
19783;BME280;10051;40.294;-3.754;2024-02-28T04:17:04;94422.78;;;6.55;43.99
19783;BME280;10051;40.294;-3.754;2024-02-28T04:19:33;94420.22;;;6.61;44.05
19783;BME280;10051;40.294;-3.754;2024-02-28T04:21:59;94443.25;;;6.64;44.14
19783;BME280;10051;40.294;-3.754;2024-02-28T04:24:24;94406.97;;;6.40;45.07
19783;BME280;10051;40.294;-3.754;2024-02-28T04:26:50;94430.53;;;6.73;44.20
19783;BME280;10051;40.294;-3.754;2024-02-28T04:29:18;94443.69;;;6.83;44.94
19783;BME280;10051;40.294;-3.754;2024-02-28T04:31:44;94373.59;;;6.47;44.72
19783;BME280;10051;40.294;-3.754;2024-02-28T04:34:09;94428.75;;;6.78;45.47
19783;BME280;10051;40.294;-3.754;2024-02-28T04:36:35;94434.75;;;6.79;45.39
19783;BME280;10051;40.294;-3.754;2024-02-28T04:39:01;94443.97;;;6.87;45.39
19783;BME280;10051;40.294;-3.754;2024-02-28T04:41:28;94429.78;;;6.77;45.74
19783;BME280;10051;40.294;-3.754;2024-02-28T04:43:53;94417.28;;;6.84;45.92
19783;BME280;10051;40.294;-3.754;2024-02-28T04:46:19;94417.88;;;6.92;46.02
19783;BME280;10051;40.294;-3.754;2024-02-28T04:48:44;94432.19;;;6.84;46.49
19783;BME280;10051;40.294;-3.754;2024-02-28T04:51:10;94429.13;;;6.92;46.33
19783;BME280;10051;40.294;-3.754;2024-02-28T04:53:35;94411.56;;;6.82;45.79
19783;BME280;10051;40.294;-3.754;2024-02-28T04:56:01;94371.56;;;6.54;46.71
19783;BME280;10051;40.294;-3.754;2024-02-28T04:58:27;94408.28;;;6.70;46.86
19783;BME280;10051;40.294;-3.754;2024-02-28T05:00:52;94382.72;;;6.45;47.76
19783;BME280;10051;40.294;-3.754;2024-02-28T05:03:18;94436.78;;;6.72;48.03
19783;BME280;10051;40.294;-3.754;2024-02-28T05:05:43;94406.75;;;6.47;47.83
19783;BME280;10051;40.294;-3.754;2024-02-28T05:08:09;94440.03;;;6.84;47.92
19783;BME280;10051;40.294;-3.754;2024-02-28T05:10:34;94444.69;;;6.77;48.27
19783;BME280;10051;40.294;-3.754;2024-02-28T05:13:00;94430.47;;;6.67;48.49
19783;BME280;10051;40.294;-3.754;2024-02-28T05:15:26;94407.06;;;6.50;48.66
19783;BME280;10051;40.294;-3.754;2024-02-28T05:17:51;94442.50;;;6.68;48.76
19783;BME280;10051;40.294;-3.754;2024-02-28T05:20:17;94386.09;;;6.45;48.07
19783;BME280;10051;40.294;-3.754;2024-02-28T05:22:43;94439.28;;;6.83;48.83
19783;BME280;10051;40.294;-3.754;2024-02-28T05:25:08;94438.34;;;7.00;48.92
19783;BME280;10051;40.294;-3.754;2024-02-28T05:27:34;94398.47;;;6.82;49.46
19783;BME280;10051;40.294;-3.754;2024-02-28T05:30:00;94392.50;;;6.60;50.26
19783;BME280;10051;40.294;-3.754;2024-02-28T05:32:26;94412.03;;;6.79;50.73
19783;BME280;10051;40.294;-3.754;2024-02-28T05:34:51;94416.22;;;6.80;51.14
19783;BME280;10051;40.294;-3.754;2024-02-28T05:37:17;94443.97;;;6.87;51.34
19783;BME280;10051;40.294;-3.754;2024-02-28T05:39:43;94399.31;;;6.61;51.16
19783;BME280;10051;40.294;-3.754;2024-02-28T05:42:09;94410.81;;;6.60;50.79
19783;BME280;10051;40.294;-3.754;2024-02-28T05:44:34;94398.13;;;6.46;50.58
19783;BME280;10051;40.294;-3.754;2024-02-28T05:47:01;94450.69;;;6.50;50.61
19783;BME280;10051;40.294;-3.754;2024-02-28T05:49:26;94464.19;;;6.19;50.29
19783;BME280;10051;40.294;-3.754;2024-02-28T05:51:52;94409.63;;;5.78;50.56
19783;BME280;10051;40.294;-3.754;2024-02-28T05:54:19;94461.94;;;6.06;51.16
19783;BME280;10051;40.294;-3.754;2024-02-28T05:56:44;94396.06;;;5.59;51.90
19783;BME280;10051;40.294;-3.754;2024-02-28T05:59:10;94416.03;;;5.71;51.72
19783;BME280;10051;40.294;-3.754;2024-02-28T06:01:35;94405.69;;;5.76;52.11
19783;BME280;10051;40.294;-3.754;2024-02-28T06:04:02;94446.88;;;6.13;52.25
19783;BME280;10051;40.294;-3.754;2024-02-28T06:06:28;94391.53;;;5.72;51.90
19783;BME280;10051;40.294;-3.754;2024-02-28T06:08:53;94436.69;;;6.12;51.87
19783;BME280;10051;40.294;-3.754;2024-02-28T06:11:19;94393.31;;;5.88;52.01
19783;BME280;10051;40.294;-3.754;2024-02-28T06:13:45;94436.13;;;6.09;52.18
19783;BME280;10051;40.294;-3.754;2024-02-28T06:16:14;94436.91;;;6.10;51.87
19783;BME280;10051;40.294;-3.754;2024-02-28T06:18:40;94421.28;;;5.93;52.90
19783;BME280;10051;40.294;-3.754;2024-02-28T06:21:06;94465.91;;;5.91;52.65
19783;BME280;10051;40.294;-3.754;2024-02-28T06:23:32;94438.75;;;5.70;53.50
19783;BME280;10051;40.294;-3.754;2024-02-28T06:25:57;94420.75;;;5.51;53.99
19783;BME280;10051;40.294;-3.754;2024-02-28T06:28:23;94446.66;;;5.58;54.79
19783;BME280;10051;40.294;-3.754;2024-02-28T06:30:48;94459.94;;;5.74;54.65
19783;BME280;10051;40.294;-3.754;2024-02-28T06:33:14;94399.59;;;5.48;55.04
19783;BME280;10051;40.294;-3.754;2024-02-28T06:35:40;94440.69;;;5.80;55.31
19783;BME280;10051;40.294;-3.754;2024-02-28T06:38:06;94438.53;;;5.94;54.06
19783;BME280;10051;40.294;-3.754;2024-02-28T06:40:32;94387.19;;;5.60;54.63
19783;BME280;10051;40.294;-3.754;2024-02-28T06:43:02;94429.09;;;5.71;54.97
19783;BME280;10051;40.294;-3.754;2024-02-28T06:45:28;94368.25;;;5.09;54.94
19783;BME280;10051;40.294;-3.754;2024-02-28T06:47:54;94452.75;;;5.64;55.23
19783;BME280;10051;40.294;-3.754;2024-02-28T06:50:19;94402.13;;;5.43;55.28
19783;BME280;10051;40.294;-3.754;2024-02-28T06:52:45;94448.81;;;5.84;56.00
19783;BME280;10051;40.294;-3.754;2024-02-28T06:55:10;94441.59;;;5.69;55.86
19783;BME280;10051;40.294;-3.754;2024-02-28T06:57:37;94386.78;;;5.29;56.50
19783;BME280;10051;40.294;-3.754;2024-02-28T07:00:06;94451.22;;;5.85;56.58
19783;BME280;10051;40.294;-3.754;2024-02-28T07:02:34;94472.72;;;5.75;56.54
19783;BME280;10051;40.294;-3.754;2024-02-28T07:05:00;94427.72;;;5.46;56.79
19783;BME280;10051;40.294;-3.754;2024-02-28T07:07:25;94451.00;;;5.70;57.23
19783;BME280;10051;40.294;-3.754;2024-02-28T07:09:51;94477.94;;;5.92;56.30
19783;BME280;10051;40.294;-3.754;2024-02-28T07:12:17;94466.25;;;5.78;57.32
19783;BME280;10051;40.294;-3.754;2024-02-28T07:14:42;94497.78;;;5.93;57.08
19783;BME280;10051;40.294;-3.754;2024-02-28T07:17:08;94454.09;;;5.66;58.21
19783;BME280;10051;40.294;-3.754;2024-02-28T07:19:33;94521.13;;;5.83;58.97
19783;BME280;10051;40.294;-3.754;2024-02-28T07:21:59;94444.00;;;5.19;59.57
19783;BME280;10051;40.294;-3.754;2024-02-28T07:24:25;94521.44;;;5.70;59.94
19783;BME280;10051;40.294;-3.754;2024-02-28T07:26:50;94507.56;;;5.47;60.39
19783;BME280;10051;40.294;-3.754;2024-02-28T07:29:16;94498.84;;;5.58;60.04
19783;BME280;10051;40.294;-3.754;2024-02-28T07:31:41;94530.94;;;5.76;60.09
19783;BME280;10051;40.294;-3.754;2024-02-28T07:34:07;94542.16;;;5.93;59.50
19783;BME280;10051;40.294;-3.754;2024-02-28T07:36:33;94493.47;;;5.65;59.67
19783;BME280;10051;40.294;-3.754;2024-02-28T07:38:59;94537.72;;;6.11;59.82
19783;BME280;10051;40.294;-3.754;2024-02-28T07:41:25;94481.66;;;5.79;60.10
19783;BME280;10051;40.294;-3.754;2024-02-28T07:43:50;94530.63;;;6.29;60.24
19783;BME280;10051;40.294;-3.754;2024-02-28T07:46:16;94531.97;;;6.31;61.03
19783;BME280;10051;40.294;-3.754;2024-02-28T07:48:41;94446.22;;;5.84;59.93
19783;BME280;10051;40.294;-3.754;2024-02-28T07:51:08;94535.63;;;6.52;59.25
19783;BME280;10051;40.294;-3.754;2024-02-28T07:53:34;94540.41;;;6.61;59.35
19783;BME280;10051;40.294;-3.754;2024-02-28T07:56:00;94519.88;;;6.47;58.88
19783;BME280;10051;40.294;-3.754;2024-02-28T07:58:25;94541.63;;;6.75;59.19
19783;BME280;10051;40.294;-3.754;2024-02-28T08:00:51;94531.25;;;6.80;59.59
19783;BME280;10051;40.294;-3.754;2024-02-28T08:03:19;94533.41;;;6.89;59.56
19783;BME280;10051;40.294;-3.754;2024-02-28T08:05:45;94520.31;;;6.89;59.66
19783;BME280;10051;40.294;-3.754;2024-02-28T08:08:11;94542.59;;;7.19;59.06
19783;BME280;10051;40.294;-3.754;2024-02-28T08:10:37;94469.06;;;6.82;59.10
19783;BME280;10051;40.294;-3.754;2024-02-28T08:13:04;94547.59;;;7.53;58.40
19783;BME280;10051;40.294;-3.754;2024-02-28T08:15:29;94546.69;;;7.69;57.86
19783;BME280;10051;40.294;-3.754;2024-02-28T08:17:55;94500.03;;;7.61;56.89
19783;BME280;10051;40.294;-3.754;2024-02-28T08:20:21;94523.25;;;7.90;56.19
19783;BME280;10051;40.294;-3.754;2024-02-28T08:22:46;94484.69;;;7.75;55.39
19783;BME280;10051;40.294;-3.754;2024-02-28T08:25:12;94466.06;;;7.66;55.56
19783;BME280;10051;40.294;-3.754;2024-02-28T08:27:38;94570.69;;;8.37;56.07
19783;BME280;10051;40.294;-3.754;2024-02-28T08:30:04;94519.72;;;8.07;55.68
19783;BME280;10051;40.294;-3.754;2024-02-28T08:32:31;94575.25;;;8.52;55.02
19783;BME280;10051;40.294;-3.754;2024-02-28T08:34:57;94575.41;;;8.83;54.52
19783;BME280;10051;40.294;-3.754;2024-02-28T08:37:23;94557.34;;;8.97;53.86
19783;BME280;10051;40.294;-3.754;2024-02-28T08:39:49;94542.66;;;9.11;53.35
19783;BME280;10051;40.294;-3.754;2024-02-28T08:42:14;94529.31;;;9.28;52.93
19783;BME280;10051;40.294;-3.754;2024-02-28T08:44:40;94562.69;;;9.74;51.59
19783;BME280;10051;40.294;-3.754;2024-02-28T08:47:06;94557.97;;;9.92;51.48
19783;BME280;10051;40.294;-3.754;2024-02-28T08:49:34;94536.44;;;9.90;50.24
19783;BME280;10051;40.294;-3.754;2024-02-28T08:52:01;94523.56;;;9.83;49.98
19783;BME280;10051;40.294;-3.754;2024-02-28T08:54:26;94581.03;;;10.31;49.48
19783;BME280;10051;40.294;-3.754;2024-02-28T08:56:52;94599.19;;;10.43;48.97
19783;BME280;10051;40.294;-3.754;2024-02-28T08:59:17;94576.81;;;10.46;48.48
19783;BME280;10051;40.294;-3.754;2024-02-28T09:01:43;94596.22;;;10.70;47.85
19783;BME280;10051;40.294;-3.754;2024-02-28T09:04:09;94593.00;;;10.84;47.30
19783;BME280;10051;40.294;-3.754;2024-02-28T09:06:34;94589.78;;;10.97;47.11
19783;BME280;10051;40.294;-3.754;2024-02-28T09:09:00;94596.06;;;11.12;46.68
19783;BME280;10051;40.294;-3.754;2024-02-28T09:11:25;94568.66;;;11.18;46.28
19783;BME280;10051;40.294;-3.754;2024-02-28T09:13:51;94593.56;;;11.36;45.99
19783;BME280;10051;40.294;-3.754;2024-02-28T09:16:18;94568.06;;;11.26;46.10
19783;BME280;10051;40.294;-3.754;2024-02-28T09:18:44;94584.81;;;11.41;45.51
19783;BME280;10051;40.294;-3.754;2024-02-28T09:21:09;94597.31;;;11.70;44.58
19783;BME280;10051;40.294;-3.754;2024-02-28T09:23:35;94576.31;;;11.54;44.99
19783;BME280;10051;40.294;-3.754;2024-02-28T09:26:04;94588.00;;;11.78;43.72
19783;BME280;10051;40.294;-3.754;2024-02-28T09:28:30;94606.06;;;12.00;43.59
19783;BME280;10051;40.294;-3.754;2024-02-28T09:30:56;94598.13;;;12.05;42.76
19783;BME280;10051;40.294;-3.754;2024-02-28T09:33:23;94567.69;;;11.83;42.13
19783;BME280;10051;40.294;-3.754;2024-02-28T09:35:48;94600.63;;;12.15;42.28
19783;BME280;10051;40.294;-3.754;2024-02-28T09:38:14;94595.88;;;12.17;42.22
19783;BME280;10051;40.294;-3.754;2024-02-28T09:40:40;94536.25;;;11.92;41.82
19783;BME280;10051;40.294;-3.754;2024-02-28T09:43:06;94618.28;;;12.49;41.50
19783;BME280;10051;40.294;-3.754;2024-02-28T09:45:36;94517.41;;;11.80;42.13
19783;BME280;10051;40.294;-3.754;2024-02-28T09:48:02;94572.63;;;12.25;41.35
19783;BME280;10051;40.294;-3.754;2024-02-28T09:50:28;94524.59;;;11.98;42.11
19783;BME280;10051;40.294;-3.754;2024-02-28T09:52:54;94611.97;;;12.45;41.77
19783;BME280;10051;40.294;-3.754;2024-02-28T09:55:20;94616.91;;;12.52;43.32
19783;BME280;10051;40.294;-3.754;2024-02-28T09:57:49;94587.09;;;12.27;41.31
19783;BME280;10051;40.294;-3.754;2024-02-28T10:00:19;94616.75;;;12.43;41.54
19783;BME280;10051;40.294;-3.754;2024-02-28T10:02:47;94572.69;;;12.14;40.88
19783;BME280;10051;40.294;-3.754;2024-02-28T10:05:14;94620.72;;;12.41;42.16
19783;BME280;10051;40.294;-3.754;2024-02-28T10:07:39;94578.34;;;12.02;42.09
19783;BME280;10051;40.294;-3.754;2024-02-28T10:10:06;94620.50;;;12.37;42.23
19783;BME280;10051;40.294;-3.754;2024-02-28T10:12:33;94624.94;;;12.66;41.60
19783;BME280;10051;40.294;-3.754;2024-02-28T10:15:00;94595.72;;;12.62;41.34
19783;BME280;10051;40.294;-3.754;2024-02-28T10:17:25;94626.78;;;12.95;41.25
19783;BME280;10051;40.294;-3.754;2024-02-28T10:19:52;94631.84;;;13.11;41.16
19783;BME280;10051;40.294;-3.754;2024-02-28T10:22:17;94610.22;;;13.08;41.73
19783;BME280;10051;40.294;-3.754;2024-02-28T10:24:43;94629.41;;;13.19;41.12
19783;BME280;10051;40.294;-3.754;2024-02-28T10:27:09;94572.03;;;12.82;40.98
19783;BME280;10051;40.294;-3.754;2024-02-28T10:29:35;94581.47;;;12.88;41.02
19783;BME280;10051;40.294;-3.754;2024-02-28T10:32:00;94599.56;;;13.19;40.92
19783;BME280;10051;40.294;-3.754;2024-02-28T10:34:28;94590.00;;;13.23;41.17
19783;BME280;10051;40.294;-3.754;2024-02-28T10:36:56;94591.13;;;13.17;40.87
19783;BME280;10051;40.294;-3.754;2024-02-28T10:39:23;94623.44;;;13.52;40.59
19783;BME280;10051;40.294;-3.754;2024-02-28T10:41:50;94609.41;;;13.32;40.94
19783;BME280;10051;40.294;-3.754;2024-02-28T10:44:17;94616.44;;;13.42;40.95
19783;BME280;10051;40.294;-3.754;2024-02-28T10:46:44;94630.34;;;13.48;40.63
19783;BME280;10051;40.294;-3.754;2024-02-28T10:49:09;94555.28;;;13.11;40.17
19783;BME280;10051;40.294;-3.754;2024-02-28T10:51:36;94557.94;;;13.30;39.46
19783;BME280;10051;40.294;-3.754;2024-02-28T10:56:30;94614.28;;;13.82;39.73
19783;BME280;10051;40.294;-3.754;2024-02-28T10:58:58;94605.09;;;13.80;38.96
19783;BME280;10051;40.294;-3.754;2024-02-28T11:01:24;94566.03;;;13.77;38.94
19783;BME280;10051;40.294;-3.754;2024-02-28T11:03:51;94611.97;;;14.14;38.69
19783;BME280;10051;40.294;-3.754;2024-02-28T11:06:21;94635.06;;;14.41;38.82
19783;BME280;10051;40.294;-3.754;2024-02-28T11:08:48;94541.59;;;13.85;38.97
19783;BME280;10051;40.294;-3.754;2024-02-28T11:11:17;94574.28;;;14.22;38.65
19783;BME280;10051;40.294;-3.754;2024-02-28T11:13:52;94592.13;;;14.45;38.68
19783;BME280;10051;40.294;-3.754;2024-02-28T11:16:26;94590.41;;;14.54;38.17
19783;BME280;10051;40.294;-3.754;2024-02-28T11:18:53;94575.88;;;14.51;38.22
19783;BME280;10051;40.294;-3.754;2024-02-28T11:21:18;94623.09;;;14.77;38.17
19783;BME280;10051;40.294;-3.754;2024-02-28T11:23:47;94585.38;;;14.52;38.57
19783;BME280;10051;40.294;-3.754;2024-02-28T11:26:16;94616.50;;;14.75;38.55
19783;BME280;10051;40.294;-3.754;2024-02-28T11:28:42;94598.34;;;14.68;38.51
19783;BME280;10051;40.294;-3.754;2024-02-28T11:31:08;94579.22;;;14.57;38.27
19783;BME280;10051;40.294;-3.754;2024-02-28T11:33:33;94604.56;;;14.77;38.02
19783;BME280;10051;40.294;-3.754;2024-02-28T11:35:59;94595.31;;;14.75;36.98
19783;BME280;10051;40.294;-3.754;2024-02-28T11:38:25;94612.41;;;14.96;37.39
19783;BME280;10051;40.294;-3.754;2024-02-28T11:40:51;94574.44;;;14.73;37.11
19783;BME280;10051;40.294;-3.754;2024-02-28T11:43:17;94533.13;;;14.44;36.99
19783;BME280;10051;40.294;-3.754;2024-02-28T11:45:45;94620.53;;;15.00;37.07
19783;BME280;10051;40.294;-3.754;2024-02-28T11:48:14;94585.31;;;14.85;37.43
19783;BME280;10051;40.294;-3.754;2024-02-28T11:50:40;94588.06;;;15.08;37.42
19783;BME280;10051;40.294;-3.754;2024-02-28T11:53:07;94587.84;;;15.19;37.08
19783;BME280;10051;40.294;-3.754;2024-02-28T11:55:33;94600.97;;;15.38;37.25
19783;BME280;10051;40.294;-3.754;2024-02-28T11:57:58;94598.59;;;15.36;36.83
19783;BME280;10051;40.294;-3.754;2024-02-28T12:00:24;94536.06;;;15.12;35.80
19783;BME280;10051;40.294;-3.754;2024-02-28T12:02:49;94594.66;;;15.48;35.76
19783;BME280;10051;40.294;-3.754;2024-02-28T12:05:15;94577.03;;;15.29;36.37
19783;BME280;10051;40.294;-3.754;2024-02-28T12:07:41;94578.69;;;15.39;36.65
19783;BME280;10051;40.294;-3.754;2024-02-28T12:10:08;94556.59;;;15.43;36.65
19783;BME280;10051;40.294;-3.754;2024-02-28T12:12:34;94570.09;;;15.56;36.09
19783;BME280;10051;40.294;-3.754;2024-02-28T12:15:01;94558.22;;;15.53;35.50
19783;BME280;10051;40.294;-3.754;2024-02-28T12:17:30;94551.88;;;15.40;36.47
19783;BME280;10051;40.294;-3.754;2024-02-28T12:19:59;94586.53;;;15.67;36.08
19783;BME280;10051;40.294;-3.754;2024-02-28T12:22:24;94549.28;;;15.49;35.78
19783;BME280;10051;40.294;-3.754;2024-02-28T12:24:50;94569.66;;;15.63;36.01
19783;BME280;10051;40.294;-3.754;2024-02-28T12:27:15;94577.56;;;15.76;36.37
19783;BME280;10051;40.294;-3.754;2024-02-28T12:29:41;94551.53;;;15.79;35.86
19783;BME280;10051;40.294;-3.754;2024-02-28T12:32:07;94568.56;;;16.00;36.23
19783;BME280;10051;40.294;-3.754;2024-02-28T12:34:33;94547.59;;;15.90;35.81
19783;BME280;10051;40.294;-3.754;2024-02-28T12:36:59;94532.22;;;15.78;35.88
19783;BME280;10051;40.294;-3.754;2024-02-28T12:39:26;94528.88;;;15.86;35.76
19783;BME280;10051;40.294;-3.754;2024-02-28T12:41:52;94486.25;;;15.60;35.50
19783;BME280;10051;40.294;-3.754;2024-02-28T12:44:17;94536.38;;;15.93;35.74
19783;BME280;10051;40.294;-3.754;2024-02-28T12:46:43;94540.22;;;16.10;36.10
19783;BME280;10051;40.294;-3.754;2024-02-28T12:49:09;94533.00;;;16.01;36.22
19783;BME280;10051;40.294;-3.754;2024-02-28T12:51:40;94528.56;;;16.19;36.06
19783;BME280;10051;40.294;-3.754;2024-02-28T12:54:09;94521.75;;;16.36;35.23